Ogema, Canada
Current Conditions -  °F | °C
As of 10:43 PM on Thursday 18 Dec 2014 (Local Time) from CYQR Reporting Station
Haze Haze  
Wind Chill: 14°   Ceiling: 200
Heat Index: 23°   Visibility: 0.75mi
Dew Point: 23°   Wind: 8mph
Humidity: 100%   Direction: 230°SW
Pressure: 29.9"   Gusts: NA
Location:  49.57°N, 104.92°W
Report Text: CYQR 190443Z 23007KT 3/4SM R13/5500VP6000FT/D BR VV002 M05/M05 A2990 RMK FG8 SLP161
Loading
Personal Weather Stations






























Interactive Weather Map New forecast layout! Learn more

10-Day Weather Forecast

Advertisements
Track Severe Weather on mobile